Time;durP1;ratioP1;P1;durP2;ratioP2;P2;SDS_P1;SDS_P2;PMS_P1;PMS_P2;Temp;Humidity;BMP_temperature;BMP_pressure;BME280_temperature;BME280_humidity;BME280_pressure;Samples;Min_cycle;Max_cycle;Signal;HPM_P1;HPM_P2
2022/07/11 00:00:51;;;;;;;4.80;2.10;;;16.00;99.90;;;;;;5075546;28;20448;-75
2022/07/11 00:03:18;;;;;;;5.30;1.97;;;15.90;99.90;;;;;;5075321;28;20440;-75
2022/07/11 00:05:44;;;;;;;3.63;2.10;;;15.80;99.90;;;;;;5075100;28;20793;-75
2022/07/11 00:08:11;;;;;;;6.30;2.73;;;15.90;99.90;;;;;;5075087;28;20469;-75
2022/07/11 00:10:38;;;;;;;3.33;1.70;;;15.90;99.90;;;;;;5074613;28;20444;-75
2022/07/11 00:13:04;;;;;;;2.07;1.97;;;15.90;99.90;;;;;;5074861;28;20510;-75
2022/07/11 00:15:31;;;;;;;6.43;1.70;;;15.90;99.90;;;;;;5074468;28;20445;-75
2022/07/11 00:17:59;;;;;;;4.20;2.00;;;15.80;99.90;;;;;;5075347;28;20473;-75
2022/07/11 00:20:26;;;;;;;4.73;2.00;;;15.70;99.90;;;;;;5074480;28;20451;-75
2022/07/11 00:22:53;;;;;;;5.90;2.57;;;15.60;99.90;;;;;;5074624;28;20955;-75
2022/07/11 00:25:20;;;;;;;5.80;1.80;;;15.70;99.90;;;;;;5074787;28;20448;-75
2022/07/11 00:27:46;;;;;;;6.00;2.07;;;15.60;99.90;;;;;;5074736;28;20480;-75
2022/07/11 00:30:13;;;;;;;3.70;1.60;;;15.50;99.90;;;;;;5074544;28;20461;-75
2022/07/11 00:32:40;;;;;;;5.80;1.83;;;15.60;99.90;;;;;;5074694;28;20472;-75
2022/07/11 00:35:09;;;;;;;2.47;2.27;;;15.50;99.90;;;;;;5074885;28;20449;-74
2022/07/11 00:37:37;;;;;;;4.77;2.17;;;15.50;99.90;;;;;;5073539;28;20553;-75
2022/07/11 00:40:04;;;;;;;6.57;2.13;;;15.40;99.90;;;;;;5074452;28;20448;-75
2022/07/11 00:42:31;;;;;;;3.20;1.80;;;15.40;99.90;;;;;;5074263;28;20928;-75
2022/07/11 00:44:58;;;;;;;5.00;2.37;;;15.40;99.90;;;;;;5074569;28;20502;-75
2022/07/11 00:47:24;;;;;;;4.90;2.20;;;15.40;99.90;;;;;;5074435;28;20892;-75
2022/07/11 00:49:51;;;;;;;6.37;2.60;;;15.20;99.90;;;;;;5074697;28;20452;-75
2022/07/11 00:52:20;;;;;;;7.20;2.10;;;15.30;99.90;;;;;;5074460;28;20441;-75
2022/07/11 00:54:47;;;;;;;9.17;2.10;;;15.20;99.90;;;;;;5074322;28;20480;-75
2022/07/11 00:57:15;;;;;;;3.87;1.87;;;15.20;99.90;;;;;;5074199;28;20439;-75
2022/07/11 00:59:41;;;;;;;4.17;2.10;;;15.20;99.90;;;;;;5074183;28;20452;-75
2022/07/11 01:02:08;;;;;;;5.53;2.20;;;15.20;99.90;;;;;;5074012;28;20452;-76
2022/07/11 01:04:35;;;;;;;4.03;1.90;;;15.20;99.90;;;;;;5073805;28;20459;-76
2022/07/11 01:07:05;;;;;;;4.77;2.60;;;15.10;99.90;;;;;;5073862;28;20551;-77
2022/07/11 01:09:33;;;;;;;5.60;2.20;;;15.00;99.90;;;;;;5075139;28;20449;-76
2022/07/11 01:12:00;;;;;;;3.63;1.93;;;14.90;99.90;;;;;;5073885;28;20449;-76
2022/07/11 01:14:27;;;;;;;5.90;2.10;;;14.80;99.90;;;;;;5073748;28;20841;-76
2022/07/11 01:16:54;;;;;;;6.07;1.97;;;14.90;99.90;;;;;;5073819;28;20477;-76
2022/07/11 01:19:20;;;;;;;5.90;2.13;;;14.80;99.90;;;;;;5073735;28;20440;-75
2022/07/11 01:21:50;;;;;;;5.20;2.17;;;14.80;99.90;;;;;;5073567;28;20912;-76
2022/07/11 01:24:19;;;;;;;5.83;2.10;;;14.70;99.90;;;;;;5073363;28;20976;-76
2022/07/11 01:26:47;;;;;;;3.70;1.80;;;14.70;99.90;;;;;;5073053;28;21006;-76
2022/07/11 01:29:15;;;;;;;8.43;1.83;;;14.60;99.90;;;;;;5073614;28;20539;-74
2022/07/11 01:31:43;;;;;;;3.93;2.10;;;14.60;99.90;;;;;;5073294;28;20919;-75
2022/07/11 01:34:10;;;;;;;4.73;1.83;;;14.50;99.90;;;;;;5073440;28;20484;-75
2022/07/11 01:36:37;;;;;;;2.40;1.80;;;14.50;99.90;;;;;;5073156;28;20472;-75
2022/07/11 01:39:04;;;;;;;5.70;2.60;;;14.50;99.90;;;;;;5073361;28;20499;-75
2022/07/11 01:41:32;;;;;;;4.93;1.80;;;14.50;99.90;;;;;;5073446;28;20448;-75
2022/07/11 01:43:59;;;;;;;5.43;2.40;;;14.50;99.90;;;;;;5073244;28;20528;-76
2022/07/11 01:46:26;;;;;;;8.57;2.90;;;14.40;99.90;;;;;;5073243;28;20476;-75
2022/07/11 01:48:52;;;;;;;4.73;2.07;;;14.30;99.90;;;;;;5072807;28;20440;-75
2022/07/11 01:51:19;;;;;;;3.47;1.73;;;14.20;99.90;;;;;;5073178;28;20942;-75
2022/07/11 01:53:46;;;;;;;5.27;2.23;;;14.30;99.90;;;;;;5073041;28;20476;-75
2022/07/11 01:56:13;;;;;;;3.30;2.00;;;14.20;99.90;;;;;;5072723;28;20468;-75
2022/07/11 01:58:41;;;;;;;7.03;2.40;;;14.20;99.90;;;;;;5073134;28;20444;-75
2022/07/11 02:01:07;;;;;;;12.30;2.23;;;14.20;99.90;;;;;;5073002;28;20456;-75
2022/07/11 02:03:34;;;;;;;3.90;2.10;;;14.20;99.90;;;;;;5072879;28;20419;-75
2022/07/11 02:06:01;;;;;;;4.70;1.80;;;14.20;99.90;;;;;;5072407;28;20522;-75
2022/07/11 02:08:28;;;;;;;6.70;2.00;;;14.20;99.90;;;;;;5072780;28;20456;-75
2022/07/11 02:10:55;;;;;;;2.90;1.43;;;14.20;99.90;;;;;;5072877;28;20456;-75
2022/07/11 02:13:23;;;;;;;6.53;1.97;;;14.20;99.90;;;;;;5072790;28;20448;-75
2022/07/11 02:15:53;;;;;;;3.73;1.87;;;14.20;99.90;;;;;;5072819;28;20476;-75
2022/07/11 02:18:20;;;;;;;5.40;1.67;;;14.20;99.90;;;;;;5072774;28;20453;-75
2022/07/11 02:20:48;;;;;;;5.40;2.33;;;14.10;99.90;;;;;;5072644;28;20445;-75
2022/07/11 02:23:16;;;;;;;4.63;2.13;;;14.10;99.90;;;;;;5076796;28;20449;-75
2022/07/11 02:25:43;;;;;;;4.70;2.00;;;14.10;99.90;;;;;;5081467;28;20456;-75
2022/07/11 02:28:11;;;;;;;6.07;2.17;;;14.00;99.90;;;;;;5077757;28;20468;-75
2022/07/11 02:30:38;;;;;;;3.33;1.73;;;13.90;99.90;;;;;;5072695;28;20578;-75
2022/07/11 02:33:07;;;;;;;4.33;1.70;;;14.00;99.90;;;;;;5072596;28;20447;-75
2022/07/11 02:35:35;;;;;;;5.50;2.27;;;13.90;99.90;;;;;;5072357;28;20488;-75
2022/07/11 02:38:02;;;;;;;4.73;2.40;;;13.80;99.90;;;;;;5072306;28;20809;-75
2022/07/11 02:40:29;;;;;;;7.80;2.00;;;13.80;99.90;;;;;;5072322;28;20814;-75
2022/07/11 02:42:56;;;;;;;6.53;2.07;;;14.00;99.90;;;;;;5072790;28;20946;-75
2022/07/11 02:45:22;;;;;;;12.00;2.57;;;13.90;99.90;;;;;;5072396;28;20484;-75
2022/07/11 02:47:49;;;;;;;5.73;2.17;;;13.90;99.90;;;;;;5072451;28;20472;-75
2022/07/11 02:50:17;;;;;;;5.23;1.90;;;13.80;99.90;;;;;;5072718;28;20449;-75
2022/07/11 02:52:44;;;;;;;6.20;2.13;;;13.80;99.90;;;;;;5072389;28;20816;-75
2022/07/11 02:55:12;;;;;;;5.80;2.07;;;13.80;99.90;;;;;;5072780;28;20480;-75
2022/07/11 02:57:40;;;;;;;7.60;2.47;;;13.70;99.90;;;;;;5072996;28;20468;-75
2022/07/11 03:00:09;;;;;;;6.93;2.97;;;13.80;99.90;;;;;;5072659;28;20814;-76
2022/07/11 03:02:36;;;;;;;2.83;1.73;;;13.70;99.90;;;;;;5076695;28;20476;-76
2022/07/11 03:05:03;;;;;;;5.00;2.17;;;13.80;99.90;;;;;;5076498;28;20445;-76
2022/07/11 03:07:31;;;;;;;2.93;2.13;;;13.90;99.90;;;;;;5076299;28;20465;-75
2022/07/11 03:09:58;;;;;;;6.10;2.53;;;13.90;99.90;;;;;;5077103;28;20455;-74
2022/07/11 03:12:25;;;;;;;6.20;3.23;;;13.80;99.90;;;;;;5076287;28;20452;-75
2022/07/11 03:14:52;;;;;;;8.13;3.00;;;13.80;99.90;;;;;;5076014;28;20804;-76
2022/07/11 03:17:19;;;;;;;3.73;2.33;;;13.80;99.90;;;;;;5076062;28;20475;-76
2022/07/11 03:19:47;;;;;;;3.43;3.00;;;13.80;99.90;;;;;;5076303;28;20448;-76
2022/07/11 03:22:14;;;;;;;6.10;2.17;;;13.80;99.90;;;;;;5076880;28;20440;-76
2022/07/11 03:24:42;;;;;;;5.77;2.33;;;13.70;99.90;;;;;;5076675;28;20486;-75
2022/07/11 03:27:09;;;;;;;6.07;2.47;;;13.70;99.90;;;;;;5075831;28;20955;-76
2022/07/11 03:29:36;;;;;;;11.13;2.33;;;13.70;99.90;;;;;;5077095;28;20449;-76
2022/07/11 03:32:03;;;;;;;4.70;2.70;;;13.50;99.90;;;;;;5076696;28;20447;-75
2022/07/11 03:34:30;;;;;;;6.17;2.30;;;13.50;99.90;;;;;;5076345;28;20998;-76
2022/07/11 03:36:57;;;;;;;6.33;2.23;;;13.50;99.90;;;;;;5076594;28;20471;-75
2022/07/11 03:39:23;;;;;;;6.03;2.50;;;13.50;99.90;;;;;;5076600;28;20448;-76
2022/07/11 03:41:51;;;;;;;3.37;2.07;;;13.40;99.90;;;;;;5076871;28;20462;-76
2022/07/11 03:44:18;;;;;;;7.20;2.43;;;13.40;99.90;;;;;;5075944;28;20505;-75
2022/07/11 03:46:45;;;;;;;4.07;2.23;;;13.40;99.90;;;;;;5075571;28;20472;-76
2022/07/11 03:49:12;;;;;;;4.70;2.53;;;13.30;99.90;;;;;;5076138;28;20444;-76
2022/07/11 03:51:39;;;;;;;5.23;2.40;;;13.20;99.90;;;;;;5075541;28;20931;-75
2022/07/11 03:54:05;;;;;;;7.93;3.10;;;13.30;99.90;;;;;;5075324;28;20509;-76
2022/07/11 03:56:32;;;;;;;5.20;2.90;;;13.30;99.90;;;;;;5075414;28;20468;-75
2022/07/11 03:59:00;;;;;;;4.60;2.40;;;13.30;99.90;;;;;;5075484;28;20444;-76
2022/07/11 04:01:27;;;;;;;6.18;2.67;;;13.30;99.90;;;;;;5074474;28;20917;-76
2022/07/11 04:03:54;;;;;;;9.03;3.80;;;13.40;99.90;;;;;;5075301;28;20207;-75
2022/07/11 04:06:20;;;;;;;19.30;9.40;;;13.40;99.90;;;;;;5075354;28;20502;-74
2022/07/11 04:08:47;;;;;;;4.20;3.03;;;13.40;99.90;;;;;;5075317;28;20441;-76
2022/07/11 04:11:14;;;;;;;7.40;3.30;;;13.50;99.90;;;;;;5074767;28;20449;-75
2022/07/11 04:13:40;;;;;;;5.47;2.97;;;13.50;99.90;;;;;;5075481;28;20445;-76
2022/07/11 04:16:09;;;;;;;6.10;3.20;;;13.50;99.90;;;;;;5074972;28;20462;-75
2022/07/11 04:18:35;;;;;;;5.37;3.20;;;13.50;99.90;;;;;;5075340;28;20448;-75
2022/07/11 04:21:02;;;;;;;5.63;3.30;;;13.60;99.90;;;;;;5075855;28;20811;-75
2022/07/11 04:23:29;;;;;;;6.10;3.87;;;13.60;99.90;;;;;;5075072;28;20459;-75
2022/07/11 04:25:55;;;;;;;5.93;2.90;;;13.70;99.90;;;;;;5074702;28;20490;-75
2022/07/11 04:28:22;;;;;;;5.87;3.03;;;13.50;99.90;;;;;;5075121;28;20471;-76
2022/07/11 04:30:49;;;;;;;7.43;3.20;;;13.60;99.90;;;;;;5074598;28;20959;-76
2022/07/11 04:33:17;;;;;;;5.60;2.50;;;13.50;99.90;;;;;;5074178;28;20518;-76
2022/07/11 04:35:44;;;;;;;9.80;3.80;;;13.60;99.90;;;;;;5074852;28;20222;-76
2022/07/11 04:38:11;;;;;;;6.20;3.87;;;13.70;99.90;;;;;;5074577;28;20476;-75
2022/07/11 04:40:37;;;;;;;4.90;3.03;;;13.70;99.90;;;;;;5074555;28;20452;-76
2022/07/11 04:43:05;;;;;;;4.30;3.20;;;13.70;99.90;;;;;;5074618;28;20444;-76
2022/07/11 04:45:31;;;;;;;11.40;4.83;;;13.70;99.90;;;;;;5074470;28;20452;-75
2022/07/11 04:47:59;;;;;;;24.53;15.23;;;13.80;99.90;;;;;;5074319;28;20983;-75
2022/07/11 04:50:27;;;;;;;12.57;4.07;;;13.90;99.90;;;;;;5074469;28;20541;-75
2022/07/11 04:52:53;;;;;;;4.30;3.10;;;13.80;99.90;;;;;;5075107;28;20457;-75
2022/07/11 04:55:20;;;;;;;8.27;2.30;;;13.80;99.90;;;;;;5073026;28;20450;-74
2022/07/11 04:57:47;;;;;;;9.20;3.00;;;13.60;99.90;;;;;;5074103;28;20280;-75
2022/07/11 05:00:14;;;;;;;21.13;13.10;;;13.60;99.90;;;;;;5074788;28;20448;-75
2022/07/11 05:02:41;;;;;;;5.70;3.93;;;13.80;99.90;;;;;;5076513;28;20456;-74
2022/07/11 05:05:08;;;;;;;7.47;4.67;;;13.90;99.90;;;;;;5088160;28;20440;-73
2022/07/11 05:07:36;;;;;;;8.63;4.70;;;14.10;99.90;;;;;;5082987;28;20441;-73
2022/07/11 05:10:03;;;;;;;9.47;4.30;;;14.20;99.90;;;;;;5075225;28;20452;-75
2022/07/11 05:12:30;;;;;;;5.45;3.30;;;14.20;99.90;;;;;;5074134;28;20449;-75
2022/07/11 05:14:58;;;;;;;5.93;3.90;;;14.30;99.90;;;;;;5074429;28;20226;-74
2022/07/11 05:17:25;;;;;;;5.43;2.40;;;14.30;99.90;;;;;;5073930;28;20497;-76
2022/07/11 05:19:52;;;;;;;8.93;2.93;;;14.30;99.90;;;;;;5073964;28;20459;-75
2022/07/11 05:22:18;;;;;;;5.53;3.23;;;14.40;99.90;;;;;;5073604;28;20456;-75
2022/07/11 05:24:46;;;;;;;3.07;2.60;;;14.40;99.90;;;;;;5073066;28;20911;-77
2022/07/11 05:27:13;;;;;;;5.50;3.10;;;14.50;99.90;;;;;;5096890;22;20524;-79
2022/07/11 05:29:40;;;;;;;5.73;2.80;;;14.50;99.90;;;;;;5075516;28;20452;-78
2022/07/11 05:32:07;;;;;;;4.20;2.70;;;14.40;99.90;;;;;;5075590;28;20440;-78
2022/07/11 05:34:34;;;;;;;5.73;2.70;;;14.40;99.90;;;;;;5074784;28;20452;-77
2022/07/11 05:37:00;;;;;;;5.40;2.70;;;14.50;99.90;;;;;;5073878;28;20807;-76
2022/07/11 05:39:27;;;;;;;7.53;3.40;;;14.60;99.90;;;;;;5074149;28;20455;-76
2022/07/11 05:41:55;;;;;;;6.77;3.00;;;14.70;99.90;;;;;;5073499;28;20448;-77
2022/07/11 05:44:22;;;;;;;7.40;3.40;;;14.70;99.90;;;;;;5073388;28;20456;-76
2022/07/11 05:46:49;;;;;;;13.87;6.03;;;14.70;99.90;;;;;;5073632;28;20468;-77
2022/07/11 05:49:16;;;;;;;6.90;2.47;;;15.20;99.90;;;;;;5073637;28;20821;-77
2022/07/11 05:51:42;;;;;;;7.40;3.47;;;15.00;99.90;;;;;;5073775;28;20900;-76
2022/07/11 05:54:09;;;;;;;5.40;2.50;;;15.00;99.90;;;;;;5073704;28;20444;-77
2022/07/11 05:56:36;;;;;;;7.40;2.40;;;15.00;99.90;;;;;;5073456;28;20994;-77
2022/07/11 05:59:04;;;;;;;9.53;3.23;;;15.10;99.90;;;;;;5073582;28;20514;-76
2022/07/11 06:01:32;;;;;;;10.90;3.50;;;15.20;99.90;;;;;;5075390;28;20444;-76
2022/07/11 06:03:59;;;;;;;4.77;2.60;;;15.20;99.90;;;;;;5073403;28;20472;-76
2022/07/11 06:06:26;;;;;;;8.00;3.00;;;15.40;99.90;;;;;;5073112;28;20445;-76
2022/07/11 06:08:53;;;;;;;5.33;2.33;;;15.30;99.90;;;;;;5073286;28;20455;-76
2022/07/11 06:11:20;;;;;;;6.30;2.17;;;15.40;99.90;;;;;;5073293;28;20457;-76
2022/07/11 06:13:48;;;;;;;9.63;2.77;;;15.40;99.90;;;;;;5072996;28;20975;-76
2022/07/11 06:16:17;;;;;;;9.90;2.70;;;15.40;99.90;;;;;;5073227;28;20481;-77
2022/07/11 06:18:44;;;;;;;5.63;2.63;;;15.50;99.90;;;;;;5073307;28;20479;-76
2022/07/11 06:21:12;;;;;;;7.20;3.40;;;15.50;99.90;;;;;;5072967;28;20447;-77
2022/07/11 06:23:39;;;;;;;6.60;2.37;;;15.50;99.90;;;;;;5073268;28;20536;-76
2022/07/11 06:26:06;;;;;;;6.30;2.70;;;15.60;99.90;;;;;;5073524;28;20441;-77
2022/07/11 06:28:33;;;;;;;5.47;2.70;;;15.50;99.90;;;;;;5073251;28;20484;-76
2022/07/11 06:31:00;;;;;;;4.33;3.00;;;15.60;99.90;;;;;;5073231;28;20460;-76
2022/07/11 06:33:28;;;;;;;8.30;2.50;;;15.70;99.90;;;;;;5073996;28;20777;-76
2022/07/11 06:35:55;;;;;;;9.00;2.33;;;15.70;99.90;;;;;;5073136;28;20481;-76
2022/07/11 06:38:21;;;;;;;6.00;3.00;;;15.70;99.90;;;;;;5073160;28;20551;-76
2022/07/11 06:40:48;;;;;;;5.83;2.70;;;15.70;99.90;;;;;;5073421;28;20468;-75
2022/07/11 06:43:15;;;;;;;9.03;3.07;;;15.80;99.90;;;;;;5072524;28;20952;-77
2022/07/11 06:45:42;;;;;;;4.60;2.80;;;15.80;99.90;;;;;;5072901;28;20445;-76
2022/07/11 06:48:08;;;;;;;3.70;2.60;;;15.90;99.90;;;;;;5072737;28;20464;-76
2022/07/11 06:50:37;;;;;;;11.20;2.50;;;15.90;99.90;;;;;;5072797;28;20452;-76
2022/07/11 06:53:04;;;;;;;8.13;2.40;;;16.00;99.90;;;;;;5072892;28;20452;-76
2022/07/11 06:55:31;;;;;;;3.83;2.70;;;16.10;99.90;;;;;;5073081;28;20569;-75
2022/07/11 06:57:58;;;;;;;11.10;3.97;;;16.10;99.90;;;;;;5073272;28;20476;-76
2022/07/11 07:00:27;;;;;;;10.10;3.83;;;16.30;99.90;;;;;;5072607;28;20453;-76
2022/07/11 07:02:56;;;;;;;10.43;3.13;;;16.20;99.90;;;;;;5072833;28;20472;-76
2022/07/11 07:05:22;;;;;;;7.00;3.20;;;16.40;99.90;;;;;;5073035;28;20495;-77
2022/07/11 07:07:51;;;;;;;6.10;2.53;;;16.50;99.90;;;;;;5072893;28;20468;-76
2022/07/11 07:10:18;;;;;;;2.87;1.80;;;16.50;99.90;;;;;;5072945;28;20839;-76
2022/07/11 07:12:45;;;;;;;3.30;2.00;;;16.60;99.90;;;;;;5072300;28;20456;-76
2022/07/11 07:15:12;;;;;;;3.73;2.03;;;16.60;99.90;;;;;;5072391;28;20523;-76
2022/07/11 07:17:39;;;;;;;6.60;2.13;;;16.70;99.90;;;;;;5072649;28;20468;-75
2022/07/11 07:20:10;;;;;;;3.23;2.63;;;16.70;99.90;;;;;;5072144;28;20448;-76
2022/07/11 07:22:37;;;;;;;3.20;2.73;;;16.60;99.90;;;;;;5073349;28;20433;-75
2022/07/11 07:25:07;;;;;;;4.43;2.87;;;16.60;99.90;;;;;;5072453;28;20811;-75
2022/07/11 07:27:33;;;;;;;3.73;3.10;;;16.70;99.90;;;;;;5072366;28;20477;-75
2022/07/11 07:30:00;;;;;;;13.03;5.07;;;16.80;99.90;;;;;;5072569;28;20444;-76
2022/07/11 07:32:27;;;;;;;12.00;2.53;;;16.80;99.90;;;;;;5072207;28;20455;-76
2022/07/11 07:34:53;;;;;;;5.80;2.67;;;16.80;99.90;;;;;;5072143;28;20448;-76
2022/07/11 07:37:20;;;;;;;5.03;2.17;;;16.80;99.90;;;;;;5072576;28;20471;-76
2022/07/11 07:39:47;;;;;;;6.33;2.40;;;16.80;99.90;;;;;;5072429;28;20452;-76
2022/07/11 07:42:15;;;;;;;5.50;2.40;;;16.80;99.90;;;;;;5072505;28;20449;-76
2022/07/11 07:44:42;;;;;;;6.50;3.13;;;16.80;99.90;;;;;;5072031;28;20820;-76
2022/07/11 07:47:08;;;;;;;2.87;2.60;;;16.90;99.90;;;;;;5074257;28;20457;-76
2022/07/11 07:49:35;;;;;;;2.03;1.83;;;16.90;99.90;;;;;;5076097;28;20460;-76
2022/07/11 07:52:02;;;;;;;6.20;2.63;;;17.00;99.90;;;;;;5076169;28;20448;-78
2022/07/11 07:54:29;;;;;;;6.80;2.47;;;17.00;99.90;;;;;;5079251;28;20502;-77
2022/07/11 07:56:56;;;;;;;4.47;2.10;;;17.10;99.90;;;;;;5075797;28;21025;-76
2022/07/11 07:59:25;;;;;;;2.50;2.30;;;17.20;99.90;;;;;;5076710;28;20449;-76
2022/07/11 08:01:50;;;;;;;7.83;2.73;;;17.30;99.90;;;;;;5077050;28;20543;-77
2022/07/11 08:04:17;;;;;;;5.20;2.43;;;17.20;99.90;;;;;;5076445;28;20536;-77
2022/07/11 08:06:44;;;;;;;12.20;2.83;;;17.30;99.90;;;;;;5076071;28;20226;-77
2022/07/11 08:09:12;;;;;;;7.03;2.47;;;17.60;99.90;;;;;;5076067;28;20445;-77
2022/07/11 08:11:41;;;;;;;6.83;3.10;;;17.40;99.90;;;;;;5077652;28;20453;-77
2022/07/11 08:14:08;;;;;;;2.60;1.83;;;17.50;99.90;;;;;;5075540;28;20531;-78
2022/07/11 08:16:37;;;;;;;6.00;2.20;;;17.50;99.90;;;;;;5075824;28;20492;-76
2022/07/11 08:19:05;;;;;;;8.90;3.13;;;17.60;99.90;;;;;;5075828;28;20451;-76
2022/07/11 08:21:33;;;;;;;6.63;2.70;;;17.70;99.90;;;;;;5075757;28;20480;-77
2022/07/11 08:24:00;;;;;;;3.73;2.60;;;17.70;99.90;;;;;;5075085;28;20963;-77
2022/07/11 08:26:26;;;;;;;4.73;2.50;;;17.80;99.90;;;;;;5075391;28;20784;-77
2022/07/11 08:28:53;;;;;;;6.70;2.20;;;17.90;99.90;;;;;;5075254;28;20450;-77
2022/07/11 08:31:20;;;;;;;4.07;2.00;;;17.90;99.90;;;;;;5075159;28;20797;-78
2022/07/11 08:33:48;;;;;;;15.33;2.77;;;18.00;99.90;;;;;;5075376;28;20460;-77
2022/07/11 08:36:15;;;;;;;3.20;2.43;;;18.10;99.90;;;;;;5075163;28;20480;-77
2022/07/11 08:38:46;;;;;;;2.70;2.17;;;18.10;99.90;;;;;;5075268;28;20449;-77
2022/07/11 08:41:13;;;;;;;9.77;2.30;;;18.20;99.90;;;;;;5076211;28;20444;-77
2022/07/11 08:43:42;;;;;;;6.27;2.07;;;18.10;99.90;;;;;;5075217;28;20452;-77
2022/07/11 08:46:10;;;;;;;5.47;3.03;;;18.10;99.90;;;;;;5075094;28;20815;-77
2022/07/11 08:48:39;;;;;;;5.70;2.50;;;18.20;99.90;;;;;;5076767;28;20464;-78
2022/07/11 08:51:08;;;;;;;3.33;1.93;;;18.30;99.90;;;;;;5079860;28;20464;-78
2022/07/11 08:53:40;;;;;;;3.03;1.93;;;18.30;99.90;;;;;;5079486;28;20521;-78
2022/07/11 08:56:14;;;;;;;13.00;3.17;;;18.30;99.90;;;;;;5079924;28;20907;-78
2022/07/11 08:58:43;;;;;;;6.80;2.53;;;18.40;99.90;;;;;;5076807;28;20443;-78
2022/07/11 09:01:12;;;;;;;5.27;2.57;;;18.30;99.90;;;;;;5075809;28;20787;-77
2022/07/11 09:03:39;;;;;;;7.73;2.73;;;18.50;99.90;;;;;;5077517;28;20484;-78
2022/07/11 09:06:07;;;;;;;5.07;2.00;;;18.60;99.90;;;;;;5077304;28;20456;-78
2022/07/11 09:08:35;;;;;;;10.70;2.77;;;18.80;99.90;;;;;;5081295;28;20468;-78
2022/07/11 09:11:02;;;;;;;7.40;2.03;;;18.80;99.90;;;;;;5088905;28;20449;-78
2022/07/11 09:13:30;;;;;;;7.70;2.80;;;18.80;99.90;;;;;;5083130;28;20441;-79
2022/07/11 09:16:03;;;;;;;8.80;2.50;;;18.90;99.90;;;;;;5080188;28;20484;-79
2022/07/11 09:18:37;;;;;;;3.70;1.77;;;18.70;99.90;;;;;;5078429;28;20465;-79
2022/07/11 09:26:38;;;;;;;2.90;1.60;;;18.80;99.90;;;;;;5078174;28;20518;-79
2022/07/11 09:29:08;;;;;;;5.37;2.10;;;18.80;99.90;;;;;;5077353;28;20433;-79
2022/07/11 09:31:36;;;;;;;5.30;1.50;;;18.60;99.90;;;;;;5082873;28;20449;-78
2022/07/11 09:34:06;;;;;;;1.80;1.60;;;19.00;99.90;;;;;;5082497;28;20441;-78
2022/07/11 09:36:41;;;;;;;4.50;2.00;;;18.90;99.90;;;;;;5085943;28;20564;-77
2022/07/11 09:39:11;;;;;;;1.97;1.40;;;19.00;99.90;;;;;;5089933;28;20452;-78
2022/07/11 09:41:43;;;;;;;6.70;1.97;;;19.20;99.90;;;;;;5085311;28;20520;-79
2022/07/11 09:44:13;;;;;;;3.43;1.73;;;19.20;99.90;;;;;;5083512;28;20439;-79
2022/07/11 09:46:40;;;;;;;3.13;2.13;;;19.20;99.90;;;;;;5082485;28;20461;-79
2022/07/11 09:49:07;;;;;;;4.17;1.80;;;19.20;99.90;;;;;;5084394;28;20819;-78
2022/07/11 09:51:35;;;;;;;5.20;3.60;;;19.10;99.90;;;;;;5083815;28;20444;-79
2022/07/11 09:54:05;;;;;;;2.80;1.70;;;18.20;99.90;;;;;;5086275;28;20476;-78
2022/07/11 09:56:40;;;;;;;4.17;2.00;;;19.40;99.90;;;;;;5081827;28;20484;-77
2022/07/11 09:59:09;;;;;;;2.50;1.50;;;19.70;99.90;;;;;;5078120;28;20431;-78
2022/07/11 10:01:36;;;;;;;3.93;2.20;;;19.60;99.90;;;;;;5076394;28;20872;-79
2022/07/11 10:04:05;;;;;;;6.53;2.30;;;19.60;99.90;;;;;;5077203;28;20473;-77
2022/07/11 10:09:46;;;;;;;6.90;1.90;;;;;;;;;;5071006;28;20802;-79
2022/07/11 10:12:14;;;;;;;4.60;1.67;;;19.80;99.90;;;;;;5076355;28;20940;-78
2022/07/11 10:14:43;;;;;;;2.40;1.40;;;19.80;99.90;;;;;;5076675;28;20443;-81
2022/07/11 10:17:19;;;;;;;3.17;2.20;;;19.80;99.90;;;;;;5076122;28;20483;-80
2022/07/11 10:19:53;;;;;;;4.33;1.40;;;19.80;99.90;;;;;;5076621;28;21004;-79
2022/07/11 10:22:26;;;;;;;6.50;1.63;;;20.00;99.90;;;;;;5077424;28;20429;-80
2022/07/11 10:25:00;;;;;;;3.57;1.87;;;20.10;99.90;;;;;;5076180;28;20436;-81
2022/07/11 10:27:37;;;;;;;2.60;1.97;;;20.10;99.90;;;;;;5076377;28;20913;-80
2022/07/11 10:30:06;;;;;;;1.83;1.20;;;20.20;99.90;;;;;;5078040;28;20888;-80
2022/07/11 10:32:33;;;;;;;6.23;1.30;;;20.20;99.90;;;;;;5081729;28;20911;-81
2022/07/11 10:35:07;;;;;;;2.10;1.57;;;20.10;99.90;;;;;;5076479;28;20490;-81
2022/07/11 10:37:48;;;;;;;4.33;1.43;;;20.20;99.90;;;;;;5077863;28;20502;-80
2022/07/11 10:40:14;;;;;;;3.90;1.70;;;20.20;99.90;;;;;;5075670;28;20425;-81
2022/07/11 10:42:43;;;;;;;2.40;1.60;;;20.20;99.90;;;;;;5076127;28;20911;-81
2022/07/11 10:45:12;;;;;;;3.03;1.50;;;20.20;99.90;;;;;;5076156;28;20445;-81
2022/07/11 10:47:42;;;;;;;2.10;1.30;;;20.30;99.90;;;;;;5074874;28;20461;-81
2022/07/11 10:50:22;;;;;;;4.20;2.20;;;20.30;99.90;;;;;;5075227;28;20452;-81
2022/07/11 10:52:50;;;;;;;2.43;1.80;;;20.30;99.90;;;;;;5082608;28;20425;-80
2022/07/11 10:55:33;;;;;;;3.27;1.47;;;20.40;99.90;;;;;;5081103;28;20441;-81
2022/07/11 10:58:08;;;;;;;2.37;1.60;;;20.50;99.90;;;;;;5077819;28;20994;-81
2022/07/11 11:00:35;;;;;;;2.77;1.63;;;20.60;99.90;;;;;;5078860;28;20433;-82
2022/07/11 11:03:05;;;;;;;2.40;1.43;;;20.40;99.90;;;;;;5076745;28;20811;-83
2022/07/11 11:05:50;;;;;;;5.67;2.23;;;20.40;99.90;;;;;;5076487;28;20448;-81
2022/07/11 11:08:55;;;;;;;4.80;1.67;;;20.50;99.90;;;;;;5076700;28;20476;-80
2022/07/11 11:11:38;;;;;;;6.40;1.70;;;20.70;99.90;;;;;;5071363;28;20444;-81
2022/07/11 11:14:20;;;;;;;2.10;1.53;;;20.80;99.90;;;;;;5078255;28;20445;-82
2022/07/11 11:16:47;;;;;;;3.57;2.73;;;20.80;99.90;;;;;;5082017;28;20484;-82
2022/07/11 11:19:52;;;;;;;2.40;1.30;;;20.70;99.90;;;;;;5083143;28;20434;-83
2022/07/11 11:22:20;;;;;;;1.80;1.60;;;20.70;99.90;;;;;;5095848;28;20436;-82
2022/07/11 11:24:53;;;;;;;3.40;1.90;;;20.80;99.90;;;;;;5097193;28;20523;-82
2022/07/11 11:27:21;;;;;;;4.20;1.70;;;20.90;99.90;;;;;;5094442;28;20475;-82
2022/07/11 11:29:51;;;;;;;3.00;1.37;;;21.00;99.90;;;;;;5089694;28;20619;-81
2022/07/11 11:32:19;;;;;;;1.23;1.10;;;21.00;99.90;;;;;;5090308;28;20437;-81
2022/07/11 11:34:46;;;;;;;2.50;1.50;;;21.00;99.90;;;;;;5085870;28;20448;-82
2022/07/11 11:37:18;;;;;;;1.57;1.47;;;20.80;99.90;;;;;;5083583;28;20496;-82
2022/07/11 11:39:46;;;;;;;1.30;1.20;;;20.60;99.90;;;;;;5082658;28;20433;-82
2022/07/11 11:42:15;;;;;;;1.43;1.10;;;20.70;99.90;;;;;;5081843;28;20448;-83
2022/07/11 11:44:52;;;;;;;3.20;1.77;;;20.80;99.90;;;;;;5080649;28;20444;-80
2022/07/11 11:47:19;;;;;;;5.47;3.23;;;21.10;99.90;;;;;;5085741;28;20476;-82
2022/07/11 11:49:48;;;;;;;2.03;1.80;;;21.30;99.90;;;;;;5095434;28;20437;-81
2022/07/11 11:52:15;;;;;;;1.57;1.20;;;21.40;99.90;;;;;;5097157;28;20430;-82
2022/07/11 11:54:42;;;;;;;1.90;1.60;;;21.20;99.90;;;;;;5092810;28;20838;-82
2022/07/11 11:57:11;;;;;;;2.70;1.20;;;21.20;99.90;;;;;;5083645;28;20484;-82
2022/07/11 11:59:39;;;;;;;1.47;1.17;;;21.20;99.90;;;;;;5082328;28;20478;-81
2022/07/11 12:02:07;;;;;;;6.00;1.60;;;21.30;99.90;;;;;;5081341;28;20440;-81
2022/07/11 12:04:36;;;;;;;3.00;1.17;;;21.40;99.90;;;;;;5079948;28;20452;-80
2022/07/11 12:07:05;;;;;;;1.10;1.00;;;21.50;99.90;;;;;;5080326;28;20469;-80
2022/07/11 12:15:06;;;;;;;2.20;0.90;;;21.80;99.90;;;;;;5091309;28;20511;-81
2022/07/11 12:17:35;;;;;;;2.43;1.43;;;21.70;99.90;;;;;;5096128;28;20480;-81
2022/07/11 12:20:02;;;;;;;2.23;1.33;;;21.80;99.90;;;;;;5093787;28;20437;-79
2022/07/11 12:22:29;;;;;;;1.63;1.40;;;21.80;99.90;;;;;;5090583;28;20514;-81
2022/07/11 12:24:56;;;;;;;7.83;1.70;;;22.00;99.90;;;;;;5086536;28;20445;-82
2022/07/11 12:27:26;;;;;;;3.03;1.00;;;22.00;99.90;;;;;;5084054;28;20479;-83
2022/07/11 12:29:53;;;;;;;3.20;1.67;;;22.00;99.90;;;;;;5080026;28;20823;-83
2022/07/11 12:32:22;;;;;;;2.07;1.53;;;21.70;99.90;;;;;;5079698;28;20445;-83
2022/07/11 12:34:51;;;;;;;1.40;1.10;;;21.70;99.90;;;;;;5080339;28;20448;-81
2022/07/11 12:37:19;;;;;;;3.80;1.30;;;21.60;99.90;;;;;;5079997;28;20485;-83
2022/07/11 12:39:51;;;;;;;2.20;0.97;;;21.40;99.90;;;;;;5079834;28;20452;-82
2022/07/11 12:42:26;;;;;;;4.00;1.10;;;21.50;99.90;;;;;;5079392;28;20445;-82
2022/07/11 12:44:59;;;;;;;1.23;1.13;;;21.50;99.90;;;;;;5086199;28;20433;-80
2022/07/11 12:47:28;;;;;;;2.30;1.13;;;21.70;99.90;;;;;;5082724;28;21025;-80
2022/07/11 12:49:56;;;;;;;1.73;1.10;;;21.80;99.90;;;;;;5090541;28;20449;-81
2022/07/11 12:52:23;;;;;;;1.80;0.90;;;22.10;99.90;;;;;;5081934;28;20448;-81
2022/07/11 12:54:52;;;;;;;1.70;1.00;;;22.20;99.90;;;;;;5079384;28;20448;-82
2022/07/11 12:57:21;;;;;;;1.57;1.00;;;22.20;99.90;;;;;;5085782;28;20515;-79
2022/07/11 12:59:48;;;;;;;1.57;1.20;;;22.30;99.90;;;;;;5083882;28;20958;-80
2022/07/11 13:02:16;;;;;;;1.23;1.10;;;22.30;99.90;;;;;;5088254;28;20444;-81
2022/07/11 13:04:47;;;;;;;2.27;1.37;;;22.20;99.90;;;;;;5083327;28;20524;-82